Time;durP1;ratioP1;P1;durP2;ratioP2;P2;SDS_P1;SDS_P2;PMS_P1;PMS_P2;Temp;Humidity;BMP_temperature;BMP_pressure;BME280_temperature;BME280_humidity;BME280_pressure;Samples;Min_cycle;Max_cycle;Signal;HPM_P1;HPM_P2
2022/05/13 00:01:45;;;;;;;3.97;2.33;;;11.80;99.90;;;;;;5048440;28;20048;-66
2022/05/13 00:04:11;;;;;;;4.43;2.45;;;11.80;99.90;;;;;;5047172;28;20086;-67
2022/05/13 00:06:36;;;;;;;5.95;2.45;;;11.80;99.90;;;;;;5047071;28;20056;-66
2022/05/13 00:09:03;;;;;;;6.15;2.47;;;11.70;99.90;;;;;;5045408;28;20036;-67
2022/05/13 00:11:28;;;;;;;9.65;2.65;;;11.70;99.90;;;;;;5044525;28;20053;-66
2022/05/13 00:13:54;;;;;;;4.00;2.28;;;11.60;99.90;;;;;;5050112;28;20434;-67
2022/05/13 00:16:20;;;;;;;9.23;3.35;;;11.60;99.90;;;;;;5050664;28;20021;-66
2022/05/13 00:18:46;;;;;;;4.43;2.50;;;11.50;99.90;;;;;;5045237;28;20025;-66
2022/05/13 00:21:11;;;;;;;13.30;3.20;;;11.50;99.90;;;;;;5046833;28;20039;-67
2022/05/13 00:23:37;;;;;;;10.75;3.65;;;11.60;99.90;;;;;;5044978;28;20021;-63
2022/05/13 00:26:03;;;;;;;10.77;2.85;;;11.60;99.90;;;;;;5043103;28;20036;-65
2022/05/13 00:28:29;;;;;;;5.22;2.65;;;11.60;99.90;;;;;;5036315;28;20028;-65
2022/05/13 00:30:55;;;;;;;4.15;2.05;;;11.70;99.90;;;;;;5046694;28;20025;-66
2022/05/13 00:33:21;;;;;;;7.00;2.13;;;11.60;99.90;;;;;;5048858;28;20082;-66
2022/05/13 00:35:48;;;;;;;7.40;2.70;;;11.90;99.90;;;;;;5047952;28;20025;-66
2022/05/13 00:38:14;;;;;;;9.32;3.17;;;12.00;99.90;;;;;;5050096;28;20033;-66
2022/05/13 00:40:40;;;;;;;9.10;2.65;;;12.20;99.90;;;;;;5045719;28;20025;-66
2022/05/13 00:43:09;;;;;;;4.13;1.95;;;12.20;99.90;;;;;;5049024;28;20033;-67
2022/05/13 00:45:35;;;;;;;7.60;2.97;;;12.10;99.90;;;;;;5047937;28;20060;-67
2022/05/13 00:48:01;;;;;;;3.38;1.77;;;12.20;99.90;;;;;;5051587;28;20040;-66
2022/05/13 00:50:30;;;;;;;7.78;1.85;;;12.20;99.90;;;;;;5050925;28;20033;-66
2022/05/13 00:52:56;;;;;;;7.57;2.22;;;12.30;99.90;;;;;;5050110;28;20510;-64
2022/05/13 00:55:28;;;;;;;6.15;2.15;;;12.20;99.90;;;;;;5058772;28;20474;-65
2022/05/13 00:57:54;;;;;;;11.88;2.25;;;12.30;99.90;;;;;;5050554;28;20033;-65
2022/05/13 01:00:20;;;;;;;9.20;2.00;;;12.30;99.90;;;;;;5052809;28;20028;-65
2022/05/13 01:02:46;;;;;;;2.83;1.75;;;12.30;99.90;;;;;;5049132;28;20755;-66
2022/05/13 01:05:14;;;;;;;7.72;1.50;;;12.40;99.90;;;;;;5049549;28;20032;-66
2022/05/13 01:07:40;;;;;;;7.10;2.13;;;12.50;99.90;;;;;;5047765;28;20043;-66
2022/05/13 01:10:12;;;;;;;10.50;1.75;;;12.60;99.90;;;;;;5053176;28;20021;-64
2022/05/13 01:12:41;;;;;;;4.70;2.20;;;12.70;99.90;;;;;;5051599;28;20029;-63
2022/05/13 01:15:11;;;;;;;8.02;1.92;;;12.80;99.90;;;;;;5048504;28;20024;-66
2022/05/13 01:20:26;;;;;;;7.38;1.50;;;12.80;99.90;;;;;;5046463;28;20044;-64
2022/05/13 01:23:00;;;;;;;14.43;3.28;;;12.80;99.90;;;;;;5050662;28;20035;-65
2022/05/13 01:25:28;;;;;;;8.73;1.80;;;12.60;99.90;;;;;;5049558;28;20134;-65
2022/05/13 01:27:56;;;;;;;7.40;2.20;;;12.40;99.90;;;;;;5047999;28;20033;-65
2022/05/13 01:30:26;;;;;;;10.57;1.80;;;12.40;99.90;;;;;;5048617;28;20552;-67
2022/05/13 01:32:52;;;;;;;7.75;1.63;;;12.30;99.90;;;;;;5050210;28;20036;-67
2022/05/13 01:35:17;;;;;;;5.43;1.65;;;12.30;99.90;;;;;;5048491;28;20044;-67
2022/05/13 01:37:44;;;;;;;8.63;2.20;;;12.10;99.90;;;;;;5049062;28;20025;-64
2022/05/13 01:40:10;;;;;;;8.85;1.75;;;12.10;99.90;;;;;;5050710;28;20032;-67
2022/05/13 01:42:35;;;;;;;9.77;1.90;;;12.20;99.90;;;;;;5048390;28;20548;-66
2022/05/13 01:45:02;;;;;;;11.68;2.67;;;12.00;99.90;;;;;;5045456;28;20033;-65
2022/05/13 01:47:28;;;;;;;13.55;2.55;;;12.10;99.90;;;;;;5048817;28;20031;-64
2022/05/13 01:49:55;;;;;;;4.72;2.20;;;12.10;99.90;;;;;;5051462;28;20025;-65
2022/05/13 01:52:21;;;;;;;6.15;2.20;;;12.00;99.90;;;;;;5049993;28;20044;-66
2022/05/13 01:54:46;;;;;;;4.60;1.67;;;12.00;99.90;;;;;;5066979;28;20425;-65
2022/05/13 01:57:12;;;;;;;5.57;2.00;;;12.00;99.90;;;;;;5050722;28;20021;-66
2022/05/13 01:59:38;;;;;;;12.30;2.85;;;12.00;99.90;;;;;;5052142;28;20434;-65
2022/05/13 02:02:04;;;;;;;5.47;3.00;;;12.10;99.90;;;;;;5044473;28;20025;-66
2022/05/13 02:04:29;;;;;;;3.35;1.70;;;12.10;99.90;;;;;;5047432;28;20041;-65
2022/05/13 02:06:55;;;;;;;3.58;1.50;;;12.10;99.90;;;;;;5044592;28;20123;-66
2022/05/13 02:09:21;;;;;;;5.57;1.80;;;12.20;99.90;;;;;;5047517;28;20113;-66
2022/05/13 02:11:46;;;;;;;3.38;1.95;;;12.10;99.90;;;;;;5052935;28;20045;-67
2022/05/13 02:14:17;;;;;;;2.72;1.70;;;12.20;99.90;;;;;;5046361;28;20035;-66
2022/05/13 02:16:43;;;;;;;4.30;1.30;;;12.20;99.90;;;;;;5046316;28;20021;-65
2022/05/13 02:19:09;;;;;;;2.80;1.42;;;12.20;99.90;;;;;;5048867;28;20074;-64
2022/05/13 02:21:35;;;;;;;5.90;2.10;;;12.20;99.90;;;;;;5044613;28;20388;-68
2022/05/13 02:24:01;;;;;;;9.95;1.95;;;12.10;99.90;;;;;;5047643;28;20491;-67
2022/05/13 02:26:26;;;;;;;5.03;1.58;;;12.00;99.90;;;;;;5046957;28;20025;-64
2022/05/13 02:28:52;;;;;;;4.70;2.00;;;12.10;99.90;;;;;;5050628;28;20083;-67
2022/05/13 02:31:17;;;;;;;5.93;1.63;;;12.10;99.90;;;;;;5048192;28;20024;-66
2022/05/13 02:33:43;;;;;;;4.32;1.38;;;12.00;99.90;;;;;;5049875;28;20060;-66
2022/05/13 02:36:11;;;;;;;8.52;1.90;;;12.00;99.90;;;;;;5046081;28;20203;-65
2022/05/13 02:38:37;;;;;;;4.57;1.33;;;12.00;99.90;;;;;;5046424;28;20028;-66
2022/05/13 02:41:12;;;;;;;3.63;1.50;;;12.10;99.90;;;;;;5045531;28;20029;-66
2022/05/13 02:43:45;;;;;;;2.63;1.23;;;12.00;99.90;;;;;;5045296;28;20033;-65
2022/05/13 02:46:12;;;;;;;6.97;2.03;;;12.00;99.90;;;;;;5048616;28;20422;-66
2022/05/13 02:48:37;;;;;;;6.30;1.75;;;11.90;99.90;;;;;;5046011;28;20240;-64
2022/05/13 02:51:03;;;;;;;5.80;1.52;;;12.00;99.90;;;;;;5047117;28;20646;-65
2022/05/13 02:53:29;;;;;;;2.63;1.23;;;12.10;99.90;;;;;;5049184;28;20032;-66
2022/05/13 02:55:54;;;;;;;2.65;1.70;;;12.20;99.90;;;;;;5049633;28;20039;-65
2022/05/13 02:58:20;;;;;;;7.43;1.02;;;12.40;99.90;;;;;;5046688;28;20033;-65
2022/05/13 03:00:45;;;;;;;8.70;1.70;;;12.40;99.90;;;;;;5048983;28;20104;-64
2022/05/13 03:03:12;;;;;;;6.55;1.67;;;12.50;99.90;;;;;;5049691;28;20448;-65
2022/05/13 03:05:38;;;;;;;3.60;1.17;;;12.60;99.90;;;;;;5047151;28;20037;-66
2022/05/13 03:08:06;;;;;;;4.00;1.58;;;12.70;99.90;;;;;;5048241;28;20115;-68
2022/05/13 03:10:36;;;;;;;5.40;1.15;;;12.70;99.90;;;;;;5052444;28;20585;-65
2022/05/13 03:13:03;;;;;;;6.60;1.33;;;12.80;99.90;;;;;;5045360;28;20036;-63
2022/05/13 03:15:29;;;;;;;3.70;1.13;;;12.80;99.90;;;;;;5047730;28;20071;-64
2022/05/13 03:17:58;;;;;;;3.20;0.85;;;12.80;99.90;;;;;;5047274;28;20044;-65
2022/05/13 03:20:25;;;;;;;5.75;1.02;;;12.70;99.90;;;;;;5044545;28;20367;-65
2022/05/13 03:22:51;;;;;;;5.80;1.17;;;12.70;99.90;;;;;;5048603;28;20032;-66
2022/05/13 03:25:18;;;;;;;8.90;2.13;;;12.70;99.90;;;;;;5051158;28;20074;-65
2022/05/13 03:27:44;;;;;;;3.17;1.15;;;12.60;99.90;;;;;;5050515;28;20032;-65
2022/05/13 03:30:13;;;;;;;4.03;1.33;;;12.50;99.90;;;;;;5046522;28;20537;-64
2022/05/13 03:32:39;;;;;;;4.35;0.98;;;12.50;99.90;;;;;;5049545;28;20779;-64
2022/05/13 03:35:06;;;;;;;4.53;1.05;;;12.40;99.90;;;;;;5044024;28;20126;-65
2022/05/13 03:37:32;;;;;;;4.57;1.30;;;12.30;99.90;;;;;;5045575;28;20025;-66
2022/05/13 03:39:57;;;;;;;3.28;1.10;;;12.20;99.90;;;;;;5047837;28;20515;-65
2022/05/13 03:42:23;;;;;;;6.47;1.23;;;12.10;99.90;;;;;;5045890;28;20141;-65
2022/05/13 03:44:50;;;;;;;6.82;1.13;;;12.10;99.90;;;;;;5044970;28;20407;-66
2022/05/13 03:47:16;;;;;;;3.00;0.80;;;12.00;99.90;;;;;;5043173;28;20372;-64
2022/05/13 03:49:42;;;;;;;5.35;1.33;;;12.00;99.90;;;;;;5046923;28;20031;-65
2022/05/13 03:52:11;;;;;;;3.53;1.13;;;12.00;99.90;;;;;;5049366;28;20064;-66
2022/05/13 03:54:38;;;;;;;7.85;1.42;;;12.00;99.90;;;;;;5047891;28;20031;-66
2022/05/13 03:57:06;;;;;;;11.63;1.40;;;12.10;99.90;;;;;;5056071;28;20036;-65
2022/05/13 03:59:32;;;;;;;3.08;1.05;;;12.00;99.90;;;;;;5045299;28;20024;-65
2022/05/13 04:01:57;;;;;;;7.65;1.08;;;12.00;99.90;;;;;;5049416;28;20100;-66
2022/05/13 04:04:24;;;;;;;10.65;1.40;;;12.00;99.90;;;;;;5050104;28;20702;-64
2022/05/13 04:09:35;;;;;;;6.90;1.08;;;12.00;99.90;;;;;;5047875;28;20052;-66
2022/05/13 04:17:30;;;;;;;4.38;1.08;;;11.90;99.90;;;;;;5055875;28;20098;-64
2022/05/13 04:19:55;;;;;;;10.68;1.98;;;11.80;99.90;;;;;;5054041;28;20025;-65
2022/05/13 04:22:24;;;;;;;12.60;2.00;;;11.90;99.90;;;;;;5047924;28;20021;-66
2022/05/13 04:24:52;;;;;;;6.72;1.08;;;11.90;99.90;;;;;;5055619;28;20074;-65
2022/05/13 04:27:19;;;;;;;4.65;1.00;;;12.00;99.90;;;;;;5052476;28;20044;-64
2022/05/13 04:29:44;;;;;;;1.60;0.88;;;12.00;99.90;;;;;;5050030;28;20029;-65
2022/05/13 04:32:11;;;;;;;2.13;0.77;;;11.90;99.90;;;;;;5051131;28;20099;-64
2022/05/13 04:34:37;;;;;;;7.05;1.15;;;12.00;99.90;;;;;;5051791;28;20079;-64
2022/05/13 04:37:02;;;;;;;1.83;1.00;;;11.90;99.90;;;;;;5053091;28;20052;-64
2022/05/13 04:39:29;;;;;;;9.05;1.25;;;11.90;99.90;;;;;;5054128;28;20535;-65
2022/05/13 04:44:40;;;;;;;4.82;0.90;;;12.10;99.90;;;;;;5053085;28;20452;-64
2022/05/13 04:48:15;;;;;;;4.43;1.30;;;12.10;99.90;;;;;;5050392;28;20041;-66
2022/05/13 04:49:52;;;;;;;5.13;1.23;;;12.20;99.90;;;;;;5048439;28;20112;-65
2022/05/13 04:52:17;;;;;;;4.93;1.38;;;12.10;99.90;;;;;;5052240;28;20111;-65
2022/05/13 04:54:43;;;;;;;11.70;1.40;;;12.20;99.90;;;;;;5052222;28;20479;-68
2022/05/13 04:57:08;;;;;;;4.57;1.23;;;12.30;99.90;;;;;;5067770;28;20098;-66
2022/05/13 04:59:34;;;;;;;3.25;1.20;;;12.40;99.90;;;;;;5051381;28;20403;-65
2022/05/13 05:01:59;;;;;;;5.45;0.98;;;12.50;99.90;;;;;;5047628;28;20025;-66
2022/05/13 05:04:25;;;;;;;3.53;1.15;;;12.50;99.90;;;;;;5047898;28;20025;-65
2022/05/13 05:06:51;;;;;;;10.70;1.83;;;12.50;99.90;;;;;;5050730;28;20045;-65
2022/05/13 05:09:16;;;;;;;4.47;1.20;;;12.50;99.90;;;;;;5051494;28;20098;-67
2022/05/13 05:11:42;;;;;;;4.50;1.30;;;12.40;99.90;;;;;;5050154;28;20122;-66
2022/05/13 05:14:07;;;;;;;7.40;1.40;;;12.40;99.90;;;;;;5050487;28;20036;-66
2022/05/13 05:16:33;;;;;;;12.50;1.42;;;12.30;99.90;;;;;;5062271;28;20018;-65
2022/05/13 05:18:59;;;;;;;11.63;2.30;;;12.50;99.90;;;;;;5051711;28;20033;-65
2022/05/13 05:21:26;;;;;;;4.80;1.20;;;12.60;99.90;;;;;;5044332;28;20111;-65
2022/05/13 05:23:51;;;;;;;3.55;1.77;;;12.60;99.90;;;;;;5047927;28;20036;-65
2022/05/13 05:26:17;;;;;;;11.82;1.73;;;12.70;99.90;;;;;;5045279;28;20506;-63
2022/05/13 05:28:44;;;;;;;6.68;1.65;;;12.70;99.90;;;;;;5049849;28;20043;-67
2022/05/13 05:31:11;;;;;;;3.85;1.40;;;12.70;99.90;;;;;;5044918;28;20075;-67
2022/05/13 05:33:38;;;;;;;9.77;1.77;;;12.60;99.90;;;;;;5050091;28;20056;-65
2022/05/13 05:36:04;;;;;;;6.43;1.38;;;12.50;99.90;;;;;;5050554;28;20033;-65
2022/05/13 05:38:30;;;;;;;7.57;1.30;;;12.40;99.90;;;;;;5051920;28;20025;-66
2022/05/13 05:40:59;;;;;;;6.75;1.33;;;12.50;99.90;;;;;;5048870;28;20031;-64
2022/05/13 05:43:24;;;;;;;7.53;1.60;;;12.60;99.90;;;;;;5045852;28;20123;-66
2022/05/13 05:45:50;;;;;;;12.20;1.88;;;12.70;99.90;;;;;;5051036;28;20461;-65
2022/05/13 05:48:21;;;;;;;5.32;1.52;;;12.80;99.90;;;;;;5066693;28;20108;-64
2022/05/13 05:50:49;;;;;;;3.15;1.17;;;12.90;99.90;;;;;;5046167;28;20032;-65
2022/05/13 05:53:15;;;;;;;9.68;1.30;;;12.90;99.90;;;;;;5050989;28;20036;-66
2022/05/13 05:58:24;;;;;;;11.67;1.90;;;12.90;99.90;;;;;;5049185;28;20067;-66
2022/05/13 06:00:51;;;;;;;13.07;1.90;;;13.00;99.90;;;;;;5049657;28;20025;-66
2022/05/13 06:03:18;;;;;;;7.40;1.38;;;13.00;99.90;;;;;;5046530;28;20045;-66
2022/05/13 06:05:48;;;;;;;9.43;1.63;;;12.90;99.90;;;;;;5048124;28;20129;-67
2022/05/13 06:08:13;;;;;;;10.60;1.23;;;13.00;99.90;;;;;;5045104;28;20037;-66
2022/05/13 06:10:39;;;;;;;3.58;0.90;;;13.10;99.90;;;;;;5047485;28;20083;-66
2022/05/13 06:13:05;;;;;;;9.43;1.92;;;13.10;99.90;;;;;;5048877;28;20036;-65
2022/05/13 06:15:31;;;;;;;6.40;1.75;;;13.20;99.90;;;;;;5048739;28;20025;-65
2022/05/13 06:17:57;;;;;;;9.30;1.42;;;13.20;99.90;;;;;;5048264;28;20479;-64
2022/05/13 06:20:29;;;;;;;4.00;1.27;;;13.10;99.90;;;;;;5047655;28;20036;-66
2022/05/13 06:22:55;;;;;;;5.18;1.77;;;13.10;99.90;;;;;;5049784;28;20099;-66
2022/05/13 06:25:21;;;;;;;6.35;1.48;;;13.10;99.90;;;;;;5050333;28;20039;-67
2022/05/13 06:27:48;;;;;;;12.02;2.38;;;13.20;99.90;;;;;;5050104;28;20041;-66
2022/05/13 06:30:34;;;;;;;3.70;1.75;;;13.30;99.90;;;;;;5047004;28;20329;-61
2022/05/13 06:33:00;;;;;;;9.85;2.45;;;13.50;99.90;;;;;;5048696;28;20020;-58
2022/05/13 06:35:29;;;;;;;8.63;1.48;;;13.60;99.90;;;;;;5049131;28;20498;-62
2022/05/13 06:37:54;;;;;;;9.60;1.70;;;13.70;99.90;;;;;;5046120;28;20029;-61
2022/05/13 06:40:23;;;;;;;8.48;1.45;;;13.80;99.90;;;;;;5049484;28;20036;-62
2022/05/13 06:42:50;;;;;;;8.90;2.58;;;13.90;99.90;;;;;;5049275;28;20044;-62
2022/05/13 06:45:16;;;;;;;8.75;1.90;;;13.90;99.90;;;;;;5047770;28;20021;-63
2022/05/13 06:47:42;;;;;;;7.50;1.65;;;13.90;99.90;;;;;;5043144;28;20166;-59
2022/05/13 06:50:10;;;;;;;18.65;3.05;;;13.90;99.90;;;;;;5046151;28;20112;-62
2022/05/13 06:52:36;;;;;;;8.00;1.45;;;13.90;99.90;;;;;;5047968;28;20112;-61
2022/05/13 06:55:02;;;;;;;11.80;2.40;;;14.10;99.90;;;;;;5048931;28;20577;-60
2022/05/13 06:57:27;;;;;;;7.22;1.10;;;14.10;99.90;;;;;;5050312;28;20025;-59
2022/05/13 06:59:53;;;;;;;4.65;1.17;;;14.10;99.90;;;;;;5051391;28;20215;-61
2022/05/13 07:02:19;;;;;;;5.68;1.65;;;14.00;99.90;;;;;;5050790;28;20100;-61
2022/05/13 07:04:46;;;;;;;5.28;1.23;;;14.10;99.90;;;;;;5049217;28;20418;-62
2022/05/13 07:07:12;;;;;;;5.13;1.40;;;14.20;99.90;;;;;;5047475;28;20045;-63
2022/05/13 07:09:38;;;;;;;2.97;1.20;;;14.10;99.90;;;;;;5051188;28;20059;-62
2022/05/13 07:12:05;;;;;;;9.05;1.55;;;14.10;99.90;;;;;;5051246;28;20065;-58
2022/05/13 07:14:30;;;;;;;7.70;1.70;;;14.20;99.90;;;;;;5050881;28;20029;-61
2022/05/13 07:16:56;;;;;;;5.00;1.48;;;14.20;99.90;;;;;;5050674;28;20025;-61
2022/05/13 07:19:22;;;;;;;4.35;1.30;;;14.10;99.90;;;;;;5045219;28;20421;-61
2022/05/13 07:21:48;;;;;;;6.78;1.23;;;14.20;99.90;;;;;;5045369;28;20094;-58
2022/05/13 07:24:14;;;;;;;5.68;1.52;;;14.30;99.90;;;;;;5049347;28;20124;-60
2022/05/13 07:26:39;;;;;;;7.53;1.08;;;14.30;99.90;;;;;;5049643;28;20024;-60
2022/05/13 07:29:05;;;;;;;5.72;1.38;;;14.30;99.90;;;;;;5050446;28;20497;-61
2022/05/13 07:31:31;;;;;;;9.90;1.40;;;14.40;99.90;;;;;;5046468;28;20025;-60
2022/05/13 07:33:57;;;;;;;5.55;1.38;;;14.70;99.90;;;;;;5050675;28;20376;-61
2022/05/13 07:36:22;;;;;;;8.38;2.10;;;14.80;99.90;;;;;;5049883;28;20044;-57
2022/05/13 07:41:32;;;;;;;7.23;1.77;;;15.00;99.90;;;;;;5049995;28;20063;-61
2022/05/13 07:43:58;;;;;;;4.15;1.48;;;15.10;99.90;;;;;;5049081;28;20307;-62
2022/05/13 07:46:24;;;;;;;4.72;1.42;;;15.00;99.90;;;;;;5049216;28;20387;-56
2022/05/13 07:48:51;;;;;;;3.63;1.33;;;15.10;99.90;;;;;;5043806;28;20028;-62
2022/05/13 07:51:17;;;;;;;3.58;1.35;;;15.20;99.90;;;;;;5048608;28;20033;-61
2022/05/13 07:53:42;;;;;;;7.03;1.42;;;15.20;99.90;;;;;;5048546;28;20017;-61
2022/05/13 07:56:08;;;;;;;11.07;2.35;;;15.30;99.90;;;;;;5065195;28;20025;-62
2022/05/13 07:58:34;;;;;;;8.98;1.20;;;15.30;99.90;;;;;;5050954;28;20025;-62
2022/05/13 08:01:00;;;;;;;7.88;1.17;;;15.40;99.90;;;;;;5049768;28;20025;-63
2022/05/13 08:03:26;;;;;;;6.25;0.95;;;15.50;99.90;;;;;;5050589;28;20025;-60
2022/05/13 08:05:57;;;;;;;8.00;1.17;;;15.60;99.90;;;;;;5049670;28;20056;-62
2022/05/13 08:08:30;;;;;;;9.13;1.48;;;15.60;99.90;;;;;;5049566;28;20037;-61
2022/05/13 08:11:00;;;;;;;6.18;1.60;;;15.60;99.90;;;;;;5049097;28;20033;-62
2022/05/13 08:13:29;;;;;;;5.45;1.30;;;15.60;99.90;;;;;;5049943;28;20384;-62
2022/05/13 08:15:55;;;;;;;7.90;1.00;;;15.60;99.90;;;;;;5049816;28;20033;-61
2022/05/13 08:18:21;;;;;;;6.72;1.13;;;15.60;99.90;;;;;;5050465;28;20036;-62
2022/05/13 08:20:48;;;;;;;4.45;1.38;;;15.60;99.90;;;;;;5050615;28;20051;-61
2022/05/13 08:23:13;;;;;;;9.13;1.27;;;15.80;99.90;;;;;;5049053;28;20151;-60
2022/05/13 08:25:39;;;;;;;6.68;1.10;;;15.90;99.90;;;;;;5050050;28;20132;-61
2022/05/13 08:28:06;;;;;;;7.80;1.05;;;15.70;99.90;;;;;;5050034;28;20079;-60
2022/05/13 08:30:32;;;;;;;3.65;0.93;;;15.80;99.90;;;;;;5048931;28;20497;-61
2022/05/13 08:33:01;;;;;;;9.55;1.00;;;15.80;99.90;;;;;;5048982;28;20025;-60
2022/05/13 08:35:27;;;;;;;3.72;0.90;;;15.90;99.90;;;;;;5046719;28;20082;-61
2022/05/13 08:37:54;;;;;;;6.10;1.05;;;16.00;99.90;;;;;;5049974;28;20025;-62
2022/05/13 08:40:50;;;;;;;3.50;1.25;;;16.10;99.90;;;;;;5049996;28;20534;-62
2022/05/13 08:43:23;;;;;;;5.40;1.73;;;16.20;99.90;;;;;;5048433;28;20110;-60
2022/05/13 08:46:10;;;;;;;5.50;0.95;;;16.20;99.90;;;;;;5048062;28;20025;-61
2022/05/13 08:48:57;;;;;;;10.73;0.90;;;16.40;99.90;;;;;;5049987;28;20022;-61
2022/05/13 08:52:00;;;;;;;2.70;0.95;;;16.30;99.90;;;;;;5042425;28;20112;-61
2022/05/13 08:54:32;;;;;;;2.88;1.30;;;16.40;99.90;;;;;;5045554;28;20540;-62
2022/05/13 08:57:03;;;;;;;5.78;1.00;;;16.50;99.90;;;;;;5049287;28;20032;-62
2022/05/13 08:59:42;;;;;;;2.20;0.80;;;16.60;99.90;;;;;;5051715;28;20029;-61
2022/05/13 09:02:22;;;;;;;3.83;0.80;;;16.60;99.90;;;;;;5053123;28;20036;-62
2022/05/13 09:04:54;;;;;;;6.35;1.20;;;16.80;99.90;;;;;;5051403;28;20071;-63
2022/05/13 09:07:20;;;;;;;6.68;1.02;;;16.70;99.90;;;;;;5052641;28;20407;-62
2022/05/13 09:09:50;;;;;;;1.60;0.70;;;16.80;99.90;;;;;;5105839;22;20036;-63
2022/05/13 09:12:41;;;;;;;4.70;0.80;;;16.80;99.90;;;;;;5091539;28;20109;-64
2022/05/13 09:15:21;;;;;;;6.40;0.95;;;16.90;99.90;;;;;;5086157;28;20031;-62
2022/05/13 09:18:15;;;;;;;2.38;0.77;;;16.90;99.90;;;;;;5091706;28;20465;-63
2022/05/13 09:20:47;;;;;;;4.65;1.10;;;16.80;99.90;;;;;;5088450;28;20030;-63
2022/05/13 09:23:14;;;;;;;3.03;0.70;;;17.00;99.90;;;;;;5088246;28;20028;-61
2022/05/13 09:25:55;;;;;;;2.65;0.80;;;17.10;99.90;;;;;;5090866;28;20530;-62
2022/05/13 09:28:21;;;;;;;4.30;0.63;;;17.10;99.90;;;;;;5085965;28;20085;-64
2022/05/13 09:30:50;;;;;;;4.85;1.13;;;17.20;99.90;;;;;;5085442;28;20020;-65
2022/05/13 09:33:40;;;;;;;6.20;0.85;;;17.10;99.90;;;;;;5087782;28;20024;-63
2022/05/13 09:36:09;;;;;;;2.65;0.57;;;17.10;99.90;;;;;;5086927;28;20028;-65
2022/05/13 09:38:46;;;;;;;1.50;0.60;;;17.40;99.90;;;;;;5090840;28;20093;-63
2022/05/13 09:41:22;;;;;;;3.58;1.48;;;17.40;99.90;;;;;;5090148;28;20020;-62
2022/05/13 09:43:53;;;;;;;3.90;0.40;;;17.50;99.90;;;;;;5088954;28;20505;-63
2022/05/13 09:46:35;;;;;;;4.93;0.68;;;17.40;99.90;;;;;;5091962;28;20400;-62
2022/05/13 09:49:36;;;;;;;2.83;0.80;;;17.40;99.90;;;;;;5090157;28;20026;-63
2022/05/13 09:52:12;;;;;;;7.72;0.95;;;17.40;99.90;;;;;;5090828;28;20555;-64
2022/05/13 09:54:43;;;;;;;10.60;1.42;;;17.40;99.90;;;;;;5090367;28;20088;-66
2022/05/13 09:57:10;;;;;;;2.33;0.50;;;17.20;99.90;;;;;;5090977;28;20028;-64
2022/05/13 09:59:45;;;;;;;1.60;0.50;;;17.40;99.90;;;;;;5089315;28;20085;-64
2022/05/13 10:02:29;;;;;;;3.50;0.85;;;17.80;99.90;;;;;;5086378;28;20020;-64
2022/05/13 10:05:24;;;;;;;7.15;0.82;;;18.10;99.90;;;;;;5085507;28;20119;-65
2022/05/13 10:07:53;;;;;;;;;;;18.30;99.90;;;;;;5091204;28;20532;-63
2022/05/13 10:16:19;;;;;;;3.22;0.45;;;18.30;99.90;;;;;;5089310;28;20050;-61
2022/05/13 10:19:11;;;;;;;3.28;0.70;;;18.90;99.90;;;;;;5085036;28;20403;-64
2022/05/13 10:21:44;;;;;;;3.30;0.45;;;19.10;99.90;;;;;;5087003;28;20032;-62
2022/05/13 10:24:24;;;;;;;7.63;0.50;;;19.40;99.90;;;;;;5091316;28;20016;-62
2022/05/13 10:26:50;;;;;;;1.77;0.52;;;19.70;99.90;;;;;;5087629;28;20024;-64
2022/05/13 10:29:21;;;;;;;6.10;0.85;;;19.40;99.90;;;;;;5091226;28;20020;-63
2022/05/13 10:31:49;;;;;;;6.03;1.13;;;19.30;99.90;;;;;;5087348;28;20058;-64
2022/05/13 10:34:39;;;;;;;5.40;0.85;;;19.10;99.90;;;;;;5070368;28;20742;-64
2022/05/13 10:37:13;;;;;;;2.33;0.52;;;19.10;99.90;;;;;;5086562;28;20062;-63
2022/05/13 10:39:54;;;;;;;2.50;0.70;;;19.10;99.90;;;;;;5089383;28;20024;-63
2022/05/13 10:42:35;;;;;;;2.42;1.67;;;18.70;99.90;;;;;;5086593;28;20036;-64
2022/05/13 10:45:22;;;;;;;5.55;0.77;;;18.40;99.90;;;;;;5088701;28;20024;-64
2022/05/13 10:48:02;;;;;;;1.83;0.50;;;18.40;99.90;;;;;;5091076;28;20044;-64
2022/05/13 10:50:38;;;;;;;2.35;0.95;;;18.70;99.90;;;;;;5085161;28;20020;-62
2022/05/13 10:53:17;;;;;;;4.20;1.05;;;18.80;99.90;;;;;;5090102;28;20028;-62
2022/05/13 10:56:22;;;;;;;2.13;0.60;;;18.80;99.90;;;;;;5086998;28;20042;-62
2022/05/13 10:59:03;;;;;;;;;;;19.30;99.90;;;;;;5085632;28;20101;-63
2022/05/13 11:01:48;;;;;;;1.83;0.60;;;19.60;99.90;;;;;;5086487;28;19919;-64
2022/05/13 11:04:32;;;;;;;2.40;0.70;;;19.80;99.90;;;;;;5081223;28;20023;-60
2022/05/13 11:07:12;;;;;;;2.78;0.80;;;19.80;99.90;;;;;;5079148;28;20084;-63
2022/05/13 11:09:49;;;;;;;8.13;0.70;;;19.80;99.90;;;;;;5084765;28;20043;-63
2022/05/13 11:12:28;;;;;;;4.72;0.82;;;19.60;99.90;;;;;;5089547;28;20517;-61
2022/05/13 11:15:05;;;;;;;2.63;0.68;;;19.60;99.90;;;;;;5090144;28;20032;-63
2022/05/13 11:17:34;;;;;;;1.45;0.80;;;19.80;99.90;;;;;;5090224;28;20397;-64
2022/05/13 11:20:09;;;;;;;2.78;0.50;;;19.80;99.90;;;;;;5086051;28;20059;-62
2022/05/13 11:22:44;;;;;;;1.88;0.70;;;20.00;99.90;;;;;;5089641;28;20036;-64
2022/05/13 11:28:38;;;;;;;6.05;0.73;;;19.70;99.90;;;;;;5087935;28;20116;-62
2022/05/13 11:31:29;;;;;;;0.98;0.70;;;19.50;99.90;;;;;;5089468;28;20031;-62
2022/05/13 11:34:15;;;;;;;3.55;0.55;;;19.50;99.90;;;;;;5085298;28;20024;-62
2022/05/13 11:37:02;;;;;;;3.00;0.60;;;19.80;99.90;;;;;;5083463;28;20112;-63
2022/05/13 11:39:43;;;;;;;2.60;0.75;;;20.00;99.90;;;;;;5081432;28;20024;-65
2022/05/13 11:42:30;;;;;;;4.30;0.82;;;20.00;99.90;;;;;;5088177;28;20083;-64
2022/05/13 11:45:14;;;;;;;2.05;0.70;;;19.60;99.90;;;;;;5084998;28;20039;-63
2022/05/13 11:47:58;;;;;;;2.42;0.63;;;19.60;99.90;;;;;;5078059;28;20088;-66
2022/05/13 11:50:29;;;;;;;1.50;1.08;;;19.90;99.90;;;;;;5088922;28;20031;-63
2022/05/13 11:52:57;;;;;;;1.63;0.60;;;20.10;99.90;;;;;;5082520;28;20406;-63
2022/05/13 11:55:43;;;;;;;3.83;1.00;;;20.20;99.90;;;;;;5080178;28;20107;-64
2022/05/13 11:58:47;;;;;;;3.42;0.70;;;20.30;99.90;;;;;;5080333;28;20051;-64
2022/05/13 12:01:13;;;;;;;1.50;0.57;;;20.60;99.90;;;;;;5085043;28;20571;-64
2022/05/13 12:03:39;;;;;;;8.80;0.82;;;20.90;99.90;;;;;;5077691;28;20032;-63
2022/05/13 12:06:10;;;;;;;4.82;0.73;;;20.90;99.90;;;;;;5085588;28;20080;-64
2022/05/13 12:08:40;;;;;;;10.23;0.80;;;20.70;99.90;;;;;;5082439;28;20029;-65
2022/05/13 12:11:12;;;;;;;4.28;0.85;;;20.70;99.90;;;;;;5078956;28;20031;-63
2022/05/13 12:14:04;;;;;;;5.93;0.73;;;20.50;99.90;;;;;;5084003;28;20024;-64
2022/05/13 12:17:08;;;;;;;2.53;0.70;;;20.70;99.90;;;;;;5068656;28;20044;-65
2022/05/13 12:19:55;;;;;;;4.18;0.65;;;20.90;99.90;;;;;;5051077;28;20029;-64
2022/05/13 12:22:30;;;;;;;0.90;0.55;;;21.00;99.90;;;;;;5087606;28;20093;-63
2022/05/13 12:25:12;;;;;;;4.57;0.77;;;20.90;99.90;;;;;;5088814;28;20066;-63
2022/05/13 12:28:03;;;;;;;4.60;0.70;;;21.10;99.90;;;;;;5087775;28;20036;-63
2022/05/13 12:30:33;;;;;;;0.95;0.47;;;21.30;99.90;;;;;;5087582;28;20033;-63
2022/05/13 12:33:17;;;;;;;2.05;0.77;;;21.60;99.90;;;;;;5087770;28;20176;-64
2022/05/13 12:38:31;;;;;;;3.97;0.70;;;21.80;99.90;;;;;;5092520;28;20063;-63
2022/05/13 12:41:14;;;;;;;6.72;0.75;;;21.30;99.90;;;;;;5093194;28;20012;-63
2022/05/13 12:44:07;;;;;;;2.50;1.13;;;21.40;99.90;;;;;;5086921;28;20032;-62
2022/05/13 12:46:47;;;;;;;3.53;0.52;;;21.70;99.90;;;;;;5091484;28;20032;-63
2022/05/13 12:49:19;;;;;;;3.17;0.80;;;21.30;99.90;;;;;;5091052;28;20032;-63
2022/05/13 12:52:12;;;;;;;1.27;0.50;;;21.70;99.90;;;;;;5087863;28;20020;-63
2022/05/13 12:54:47;;;;;;;1.52;0.35;;;22.10;99.90;;;;;;5080308;28;20111;-63
2022/05/13 12:57:15;;;;;;;;;;;22.10;99.90;;;;;;5089046;28;20032;-62
2022/05/13 12:59:44;;;;;;;2.05;0.50;;;22.00;99.90;;;;;;5087185;28;19956;-64
2022/05/13 13:02:11;;;;;;;0.93;0.43;;;22.00;99.90;;;;;;5080128;28;20149;-62
2022/05/13 13:04:53;;;;;;;1.75;0.40;;;21.80;99.90;;;;;;5085042;28;20035;-60
2022/05/13 13:07:21;;;;;;;7.20;0.80;;;21.90;99.90;;;;;;5083452;28;20039;-66
2022/05/13 13:09:53;;;;;;;3.30;0.68;;;21.80;99.90;;;;;;5085524;28;20038;-62
2022/05/13 13:12:27;;;;;;;4.30;0.70;;;21.90;99.90;;;;;;5085988;28;20020;-64
2022/05/13 13:15:14;;;;;;;2.97;0.55;;;22.00;99.90;;;;;;5081301;28;20016;-63
2022/05/13 13:17:43;;;;;;;2.10;0.60;;;22.10;99.90;;;;;;5082508;28;20039;-64
2022/05/13 13:20:12;;;;;;;10.57;0.70;;;22.30;99.90;;;;;;5079893;28;20386;-62
2022/05/13 13:22:41;;;;;;;1.15;0.50;;;22.30;99.90;;;;;;5083217;28;20136;-63
2022/05/13 13:25:20;;;;;;;2.55;0.70;;;22.30;99.90;;;;;;5089005;28;20036;-61
2022/05/13 13:27:46;;;;;;;11.15;0.80;;;22.50;99.90;;;;;;5085519;28;20035;-63
2022/05/13 13:30:17;;;;;;;3.25;0.60;;;22.60;99.90;;;;;;5081484;28;20024;-63
2022/05/13 13:32:47;;;;;;;2.05;0.57;;;22.90;99.90;;;;;;5081671;28;20032;-64
2022/05/13 13:35:12;;;;;;;2.05;0.50;;;22.60;99.90;;;;;;5082270;28;20484;-63